createdAt,value
2019-04-22T00:00:57.661Z,1016.29
2019-04-22T00:02:02.402Z,1016.33
2019-04-22T00:03:01.523Z,1016.32
2019-04-22T00:04:03.648Z,1016.33
2019-04-22T00:05:07.271Z,1016.25
2019-04-22T00:06:19.564Z,1016.33
2019-04-22T00:07:24.099Z,1016.33
2019-04-22T00:09:24.210Z,1016.30
2019-04-22T00:10:29.020Z,1016.28
2019-04-22T00:11:27.273Z,1016.28
2019-04-22T00:12:27.756Z,1016.25
2019-04-22T00:13:26.206Z,1016.23
2019-04-22T00:14:14.971Z,1016.24
2019-04-22T00:15:18.027Z,1016.26
2019-04-22T00:16:27.538Z,1016.23
2019-04-22T00:17:30.086Z,1016.22
2019-04-22T00:18:25.249Z,1016.17
2019-04-22T00:20:23.155Z,1016.20
2019-04-22T00:21:26.179Z,1016.18
2019-04-22T00:22:22.297Z,1016.19
2019-04-22T00:23:20.377Z,1016.18
2019-04-22T00:24:17.007Z,1016.19
2019-04-22T00:26:23.916Z,1016.13
2019-04-22T00:27:28.112Z,1016.15
2019-04-22T00:28:24.833Z,1016.12
2019-04-22T00:29:46.642Z,1016.13
2019-04-22T00:31:21.270Z,1016.10
2019-04-22T00:32:19.413Z,1016.09
2019-04-22T00:33:24.553Z,1016.09
2019-04-22T00:34:21.287Z,1016.08
2019-04-22T00:35:19.730Z,1016.06
2019-04-22T00:36:23.539Z,1016.05
2019-04-22T00:37:23.459Z,1016.06
2019-04-22T00:38:23.440Z,1016.05
2019-04-22T00:39:21.391Z,1016.05
2019-04-22T00:40:23.837Z,1016.06
2019-04-22T00:41:25.600Z,1016.08
2019-04-22T00:42:22.637Z,1016.02
2019-04-22T00:43:19.766Z,1016.07
2019-04-22T00:44:25.598Z,1016.04
2019-04-22T00:45:31.042Z,1016.05
2019-04-22T00:46:19.555Z,1015.99
2019-04-22T00:47:23.331Z,1016.01
2019-04-22T00:50:00.223Z,1016.03
2019-04-22T00:51:25.274Z,1016.03
2019-04-22T00:52:21.840Z,1016.07
2019-04-22T00:53:22.537Z,1016.07
2019-04-22T00:54:23.914Z,1016.09
2019-04-22T00:55:23.365Z,1016.08
2019-04-22T00:56:17.080Z,1016.05
2019-04-22T00:57:21.265Z,1016.02
2019-04-22T00:58:29.412Z,1016.06
2019-04-22T00:59:17.262Z,1016.04
2019-04-22T01:00:19.903Z,1016.02
2019-04-22T01:01:19.108Z,1016.05
2019-04-22T01:02:22.897Z,1016.02
2019-04-22T01:03:32.285Z,1016.05
2019-04-22T01:04:31.146Z,1016.03
2019-04-22T01:05:22.682Z,1016.01
2019-04-22T01:06:20.395Z,1016.02
2019-04-22T01:07:17.626Z,1016.02
2019-04-22T01:08:25.424Z,1016.01
2019-04-22T01:09:17.095Z,1016.06
2019-04-22T01:10:20.627Z,1016.01
2019-04-22T01:11:22.689Z,1015.98
2019-04-22T01:12:24.729Z,1015.96
2019-04-22T01:13:22.342Z,1015.96
2019-04-22T01:14:21.642Z,1015.96
2019-04-22T01:15:23.745Z,1015.97
2019-04-22T01:17:19.338Z,1015.97
2019-04-22T01:18:15.831Z,1015.96
2019-04-22T01:19:26.113Z,1015.91
2019-04-22T01:20:40.187Z,1015.94
2019-04-22T01:21:24.323Z,1015.92
2019-04-22T01:22:18.567Z,1015.91
2019-04-22T01:23:19.553Z,1015.93
2019-04-22T01:24:15.693Z,1015.94
2019-04-22T01:25:17.107Z,1015.89
2019-04-22T01:26:09.916Z,1015.88
2019-04-22T01:27:11.441Z,1015.91
2019-04-22T01:28:10.826Z,1015.90
2019-04-22T01:29:09.509Z,1015.90
2019-04-22T01:30:07.253Z,1015.88
2019-04-22T01:31:02.629Z,1015.88
2019-04-22T01:31:54.669Z,1015.91
2019-04-22T01:33:03.583Z,1015.85
2019-04-22T01:34:09.960Z,1015.87
2019-04-22T01:35:08.525Z,1015.87
2019-04-22T01:36:13.679Z,1015.86
2019-04-22T01:37:13.833Z,1015.88
2019-04-22T01:38:07.801Z,1015.86
2019-04-22T01:39:16.331Z,1015.86
2019-04-22T01:41:25.320Z,1015.82
2019-04-22T01:42:18.734Z,1015.82
2019-04-22T01:43:24.620Z,1015.79
2019-04-22T01:45:17.785Z,1015.77
2019-04-22T01:46:25.737Z,1015.76
2019-04-22T01:47:18.313Z,1015.72
2019-04-22T01:48:19.800Z,1015.70
2019-04-22T01:49:21.370Z,1015.68
2019-04-22T01:50:23.903Z,1015.68
2019-04-22T01:51:22.398Z,1015.68
2019-04-22T01:52:17.071Z,1015.66
2019-04-22T01:53:24.671Z,1015.62
2019-04-22T01:55:29.559Z,1015.64
2019-04-22T01:56:24.493Z,1015.63
2019-04-22T01:57:20.466Z,1015.61
2019-04-22T01:58:10.890Z,1015.63
2019-04-22T01:59:12.512Z,1015.62
2019-04-22T02:00:11.311Z,1015.65
2019-04-22T02:01:22.148Z,1015.62
2019-04-22T02:02:19.061Z,1015.64
2019-04-22T02:03:23.589Z,1015.60
2019-04-22T02:04:30.308Z,1015.60
2019-04-22T02:05:17.772Z,1015.60
2019-04-22T02:06:23.379Z,1015.61
2019-04-22T02:07:23.573Z,1015.58
2019-04-22T02:08:23.395Z,1015.61
2019-04-22T02:09:28.813Z,1015.62
2019-04-22T02:10:20.002Z,1015.62
2019-04-22T02:11:29.368Z,1015.63
2019-04-22T02:12:19.592Z,1015.66
2019-04-22T02:13:25.148Z,1015.67
2019-04-22T02:14:20.683Z,1015.66
2019-04-22T02:15:21.043Z,1015.66
2019-04-22T02:16:23.235Z,1015.65
2019-04-22T02:18:29.362Z,1015.63
2019-04-22T02:19:22.877Z,1015.64
2019-04-22T02:20:19.768Z,1015.62
2019-04-22T02:21:15.279Z,1015.62
2019-04-22T02:22:38.593Z,1015.61
2019-04-22T02:23:42.909Z,1015.60
2019-04-22T02:24:20.125Z,1015.57
2019-04-22T02:25:24.568Z,1015.61
2019-04-22T02:26:35.459Z,1015.62
2019-04-22T02:27:29.329Z,1015.57
2019-04-22T02:28:28.064Z,1015.56
2019-04-22T02:29:26.357Z,1015.53
2019-04-22T02:30:30.065Z,1015.52
2019-04-22T02:32:39.293Z,1015.52
2019-04-22T02:33:51.358Z,1015.50
2019-04-22T02:34:22.230Z,1015.51
2019-04-22T02:35:41.084Z,1015.49
2019-04-22T02:38:35.672Z,1015.50
2019-04-22T02:39:20.252Z,1015.49
2019-04-22T02:41:37.429Z,1015.47
2019-04-22T02:42:19.579Z,1015.46
2019-04-22T02:43:34.111Z,1015.45
2019-04-22T02:44:20.307Z,1015.47
2019-04-22T02:45:30.546Z,1015.50
2019-04-22T02:48:35.782Z,1015.45
2019-04-22T02:49:25.046Z,1015.48
2019-04-22T02:50:19.754Z,1015.47
2019-04-22T02:51:21.996Z,1015.47
2019-04-22T02:52:28.916Z,1015.46
2019-04-22T02:53:58.418Z,1015.44
2019-04-22T02:57:33.742Z,1015.42
2019-04-22T02:58:35.348Z,1015.38
2019-04-22T03:00:38.978Z,1015.35
2019-04-22T03:01:43.138Z,1015.35
2019-04-22T03:02:28.522Z,1015.35
2019-04-22T03:03:31.407Z,1015.36
2019-04-22T03:04:20.691Z,1015.30
2019-04-22T03:05:33.193Z,1015.33
2019-04-22T03:07:18.718Z,1015.30
2019-04-22T03:08:25.562Z,1015.30
2019-04-22T03:09:25.727Z,1015.26
2019-04-22T03:10:29.541Z,1015.29
2019-04-22T03:12:26.921Z,1015.29
2019-04-22T03:13:30.773Z,1015.30
2019-04-22T03:14:33.812Z,1015.28
2019-04-22T03:15:20.398Z,1015.29
2019-04-22T03:17:25.161Z,1015.28
2019-04-22T03:18:33.542Z,1015.24
2019-04-22T03:20:14.178Z,1015.26
2019-04-22T03:21:22.059Z,1015.27
2019-04-22T03:23:45.908Z,1015.29
2019-04-22T03:28:31.008Z,1015.23
2019-04-22T03:29:18.150Z,1015.23
2019-04-22T03:30:47.645Z,1015.22
2019-04-22T03:33:43.452Z,1015.23
2019-04-22T03:37:00.398Z,1015.24
2019-04-22T03:38:20.213Z,1015.18
2019-04-22T03:40:34.676Z,1015.23
2019-04-22T03:41:39.317Z,1015.23
2019-04-22T03:42:41.547Z,1015.26
2019-04-22T03:43:28.151Z,1015.23
2019-04-22T03:44:35.874Z,1015.27
2019-04-22T03:45:26.677Z,1015.25
2019-04-22T03:46:22.234Z,1015.24
2019-04-22T03:48:27.061Z,1015.22
2019-04-22T03:50:25.931Z,1015.29
2019-04-22T03:51:38.443Z,1015.28
2019-04-22T03:53:36.259Z,1015.26
2019-04-22T03:54:29.091Z,1015.25
2019-04-22T03:55:26.686Z,1015.24
2019-04-22T03:56:59.200Z,1015.29
2019-04-22T03:57:44.631Z,1015.30
2019-04-22T03:58:10.645Z,1015.23
2019-04-22T03:59:29.549Z,1015.25
2019-04-22T04:00:32.568Z,1015.25
2019-04-22T04:01:34.249Z,1015.22
2019-04-22T04:04:25.978Z,1015.21
2019-04-22T04:05:33.119Z,1015.23
2019-04-22T04:06:36.224Z,1015.22
2019-04-22T04:07:37.120Z,1015.23
2019-04-22T04:08:30.622Z,1015.22
2019-04-22T04:09:31.074Z,1015.19
2019-04-22T04:10:32.257Z,1015.18
2019-04-22T04:11:25.172Z,1015.13
2019-04-22T04:12:25.997Z,1015.14
2019-04-22T04:13:34.149Z,1015.12
2019-04-22T04:14:37.884Z,1015.17
2019-04-22T04:16:21.705Z,1015.18
2019-04-22T04:17:20.288Z,1015.13
2019-04-22T04:18:22.916Z,1015.18
2019-04-22T04:22:30.736Z,1015.09
2019-04-22T04:26:33.597Z,1015.14
2019-04-22T04:27:43.661Z,1015.15
2019-04-22T04:29:36.071Z,1015.14
2019-04-22T04:34:28.297Z,1015.15
2019-04-22T04:35:44.206Z,1015.13
2019-04-22T04:36:32.223Z,1015.19
2019-04-22T04:37:40.691Z,1015.20
2019-04-22T04:38:29.731Z,1015.14
2019-04-22T04:41:26.793Z,1015.22
2019-04-22T04:43:15.984Z,1015.18
2019-04-22T04:44:23.395Z,1015.17
2019-04-22T04:45:34.699Z,1015.22
2019-04-22T04:46:43.425Z,1015.22
2019-04-22T04:47:39.228Z,1015.21
2019-04-22T04:48:20.933Z,1015.24
2019-04-22T04:51:28.717Z,1015.24
2019-04-22T04:52:33.208Z,1015.24
2019-04-22T04:53:20.312Z,1015.25
2019-04-22T04:55:24.025Z,1015.26
2019-04-22T04:56:38.463Z,1015.24
2019-04-22T04:57:23.941Z,1015.23
2019-04-22T04:58:35.117Z,1015.24
2019-04-22T04:59:28.156Z,1015.23
2019-04-22T05:01:23.208Z,1015.22
2019-04-22T05:03:30.391Z,1015.23
2019-04-22T05:05:20.633Z,1015.22
2019-04-22T05:06:22.257Z,1015.24
2019-04-22T05:08:28.941Z,1015.20
2019-04-22T05:11:24.767Z,1015.21
2019-04-22T05:12:45.359Z,1015.19
2019-04-22T05:13:40.012Z,1015.19
2019-04-22T05:14:23.227Z,1015.18
2019-04-22T05:15:18.508Z,1015.19
2019-04-22T05:17:18.362Z,1015.19
2019-04-22T05:20:29.560Z,1015.17
2019-04-22T05:22:14.820Z,1015.18
2019-04-22T05:23:22.179Z,1015.18
2019-04-22T05:24:19.910Z,1015.22
2019-04-22T05:26:22.121Z,1015.12
2019-04-22T05:27:20.277Z,1015.15
2019-04-22T05:28:11.810Z,1015.18
2019-04-22T05:29:32.189Z,1015.16
2019-04-22T05:30:23.770Z,1015.16
2019-04-22T05:31:16.181Z,1015.17
2019-04-22T05:32:22.896Z,1015.19
2019-04-22T05:33:08.732Z,1015.13
2019-04-22T05:34:19.350Z,1015.15
2019-04-22T05:35:20.642Z,1015.17
2019-04-22T05:36:12.727Z,1015.24
2019-04-22T05:37:14.757Z,1015.21
2019-04-22T05:39:12.447Z,1015.24
2019-04-22T05:41:08.834Z,1015.24
2019-04-22T05:42:16.493Z,1015.24
2019-04-22T05:43:07.806Z,1015.29
2019-04-22T05:46:09.546Z,1015.28
2019-04-22T05:47:15.202Z,1015.31
2019-04-22T05:48:09.431Z,1015.32
2019-04-22T05:49:23.516Z,1015.33
2019-04-22T05:50:10.842Z,1015.36
2019-04-22T05:51:12.865Z,1015.36
2019-04-22T05:52:09.659Z,1015.35
2019-04-22T05:53:07.206Z,1015.36
2019-04-22T05:54:17.260Z,1015.35
2019-04-22T05:55:16.696Z,1015.42
2019-04-22T05:56:20.729Z,1015.35
2019-04-22T05:57:14.388Z,1015.38
2019-04-22T05:58:08.995Z,1015.33
2019-04-22T05:59:11.691Z,1015.35
2019-04-22T06:00:18.352Z,1015.36
2019-04-22T06:02:23.835Z,1015.31
2019-04-22T06:03:12.377Z,1015.34
2019-04-22T06:04:11.511Z,1015.34
2019-04-22T06:05:14.633Z,1015.35
2019-04-22T06:06:13.706Z,1015.31
2019-04-22T06:07:10.737Z,1015.31
2019-04-22T06:08:11.829Z,1015.31
2019-04-22T06:09:10.708Z,1015.37
2019-04-22T06:10:26.286Z,1015.37
2019-04-22T06:11:17.157Z,1015.33
2019-04-22T06:12:10.334Z,1015.33
2019-04-22T06:13:06.881Z,1015.32
2019-04-22T06:14:07.873Z,1015.33
2019-04-22T06:15:12.104Z,1015.35
2019-04-22T06:16:12.450Z,1015.33
2019-04-22T06:17:12.385Z,1015.29
2019-04-22T06:18:16.067Z,1015.29
2019-04-22T06:19:13.725Z,1015.31
2019-04-22T06:20:09.429Z,1015.33
2019-04-22T06:21:11.220Z,1015.36
2019-04-22T06:22:17.466Z,1015.35
2019-04-22T06:23:12.880Z,1015.31
2019-04-22T06:24:18.724Z,1015.30
2019-04-22T06:27:15.848Z,1015.27
2019-04-22T06:28:26.758Z,1015.29
2019-04-22T06:30:17.553Z,1015.33
2019-04-22T06:31:16.130Z,1015.33
2019-04-22T06:33:15.176Z,1015.28
2019-04-22T06:35:16.694Z,1015.23
2019-04-22T06:36:08.137Z,1015.26
2019-04-22T06:37:13.441Z,1015.27
2019-04-22T06:38:26.858Z,1015.27
2019-04-22T06:39:19.043Z,1015.27
2019-04-22T06:40:16.387Z,1015.27
2019-04-22T06:41:14.004Z,1015.25
2019-04-22T06:43:23.628Z,1015.22
2019-04-22T06:45:11.788Z,1015.24
2019-04-22T06:46:14.418Z,1015.26
2019-04-22T06:47:42.665Z,1015.29
2019-04-22T06:48:13.143Z,1015.26
2019-04-22T06:49:11.199Z,1015.34
2019-04-22T06:50:16.916Z,1015.33
2019-04-22T06:51:09.383Z,1015.33
2019-04-22T06:52:16.243Z,1015.31
2019-04-22T06:53:09.228Z,1015.37
2019-04-22T06:54:07.796Z,1015.37
2019-04-22T06:55:16.520Z,1015.39
2019-04-22T06:56:14.349Z,1015.37
2019-04-22T06:57:06.122Z,1015.45
2019-04-22T06:58:10.613Z,1015.37
2019-04-22T06:59:14.755Z,1015.40
2019-04-22T07:00:14.352Z,1015.41
2019-04-22T07:01:09.755Z,1015.44
2019-04-22T07:02:11.155Z,1015.41
2019-04-22T07:04:14.113Z,1015.40
2019-04-22T07:05:08.387Z,1015.39
2019-04-22T07:06:13.015Z,1015.40
2019-04-22T07:07:06.464Z,1015.36
2019-04-22T07:08:30.363Z,1015.40
2019-04-22T07:10:19.808Z,1015.38
2019-04-22T07:11:04.503Z,1015.41
2019-04-22T07:12:11.528Z,1015.34
2019-04-22T07:13:10.735Z,1015.43
2019-04-22T07:14:07.180Z,1015.46
2019-04-22T07:15:11.027Z,1015.50
2019-04-22T07:16:04.018Z,1015.48
2019-04-22T07:17:10.218Z,1015.49
2019-04-22T07:18:13.243Z,1015.48
2019-04-22T07:19:09.270Z,1015.46
2019-04-22T07:20:11.289Z,1015.49
2019-04-22T07:21:06.361Z,1015.52
2019-04-22T07:22:11.116Z,1015.55
2019-04-22T07:23:15.498Z,1015.50
2019-04-22T07:25:03.142Z,1015.54
2019-04-22T07:26:07.626Z,1015.50
2019-04-22T07:27:12.378Z,1015.48
2019-04-22T07:28:14.265Z,1015.47
2019-04-22T07:29:09.045Z,1015.46
2019-04-22T07:31:12.974Z,1015.52
2019-04-22T07:32:06.798Z,1015.52
2019-04-22T07:33:27.705Z,1015.51
2019-04-22T07:34:14.537Z,1015.53
2019-04-22T07:37:19.737Z,1015.49
2019-04-22T07:38:14.349Z,1015.48
2019-04-22T07:39:10.551Z,1015.49
2019-04-22T07:40:10.195Z,1015.45
2019-04-22T07:41:05.369Z,1015.49
2019-04-22T07:42:17.136Z,1015.51
2019-04-22T07:43:11.936Z,1015.51
2019-04-22T07:45:10.174Z,1015.49
2019-04-22T07:46:11.321Z,1015.45
2019-04-22T07:47:16.955Z,1015.47
2019-04-22T07:48:22.531Z,1015.38
2019-04-22T07:49:14.755Z,1015.40
2019-04-22T07:50:22.817Z,1015.38
2019-04-22T07:51:11.665Z,1015.37
2019-04-22T07:52:10.035Z,1015.35
2019-04-22T07:53:04.816Z,1015.34
2019-04-22T07:54:07.583Z,1015.31
2019-04-22T07:55:02.694Z,1015.33
2019-04-22T07:56:05.314Z,1015.34
2019-04-22T07:57:15.373Z,1015.32
2019-04-22T07:58:16.923Z,1015.36
2019-04-22T07:59:13.914Z,1015.25
2019-04-22T08:00:10.949Z,1015.38
2019-04-22T08:01:10.165Z,1015.28
2019-04-22T08:02:09.812Z,1015.27
2019-04-22T08:03:14.799Z,1015.20
2019-04-22T08:04:16.163Z,1015.25
2019-04-22T08:05:12.781Z,1015.24
2019-04-22T08:06:11.727Z,1015.24
2019-04-22T08:08:13.169Z,1015.20
2019-04-22T08:09:13.978Z,1015.25
2019-04-22T08:10:17.202Z,1015.19
2019-04-22T08:11:26.577Z,1015.29
2019-04-22T08:12:02.525Z,1015.27
2019-04-22T08:13:05.422Z,1015.21
2019-04-22T08:14:10.504Z,1015.28
2019-04-22T08:15:06.065Z,1015.24
2019-04-22T08:16:26.337Z,1015.25
2019-04-22T08:17:31.089Z,1015.23
2019-04-22T08:18:34.385Z,1015.26
2019-04-22T08:19:14.166Z,1015.29
2019-04-22T08:20:10.781Z,1015.29
2019-04-22T08:21:07.566Z,1015.29
2019-04-22T08:22:10.406Z,1015.34
2019-04-22T08:23:09.382Z,1015.27
2019-04-22T08:24:07.893Z,1015.32
2019-04-22T08:25:06.889Z,1015.30
2019-04-22T08:26:05.362Z,1015.38
2019-04-22T08:27:11.455Z,1015.36
2019-04-22T08:28:10.181Z,1015.38
2019-04-22T08:29:05.649Z,1015.28
2019-04-22T08:31:10.714Z,1015.26
2019-04-22T08:32:05.013Z,1015.27
2019-04-22T08:33:09.830Z,1015.30
2019-04-22T08:34:08.208Z,1015.29
2019-04-22T08:35:04.575Z,1015.14
2019-04-22T08:37:37.445Z,1015.30
2019-04-22T08:38:09.633Z,1015.36
2019-04-22T08:39:07.972Z,1015.36
2019-04-22T08:40:17.839Z,1015.34
2019-04-22T08:41:06.635Z,1015.35
2019-04-22T08:42:16.418Z,1015.34
2019-04-22T08:43:16.435Z,1015.32
2019-04-22T08:44:13.378Z,1015.32
2019-04-22T08:46:09.127Z,1015.37
2019-04-22T08:47:17.333Z,1015.39
2019-04-22T08:48:01.663Z,1015.37
2019-04-22T08:49:16.495Z,1015.42
2019-04-22T08:50:07.798Z,1015.39
2019-04-22T08:51:09.525Z,1015.39
2019-04-22T08:52:13.779Z,1015.39
2019-04-22T08:53:10.342Z,1015.41
2019-04-22T08:54:05.677Z,1015.38
2019-04-22T08:56:21.899Z,1015.44
2019-04-22T08:57:26.072Z,1015.39
2019-04-22T08:58:20.342Z,1015.39
2019-04-22T08:59:09.809Z,1015.35
2019-04-22T09:00:07.165Z,1015.43
2019-04-22T09:02:06.298Z,1015.35
2019-04-22T09:03:04.415Z,1015.32
2019-04-22T09:04:07.180Z,1015.36
2019-04-22T09:05:11.963Z,1015.27
2019-04-22T09:06:12.482Z,1015.28
2019-04-22T09:08:07.479Z,1015.34
2019-04-22T09:09:07.646Z,1015.27
2019-04-22T09:10:08.672Z,1015.32
2019-04-22T09:11:04.656Z,1015.26
2019-04-22T09:12:08.214Z,1015.33
2019-04-22T09:13:07.656Z,1015.30
2019-04-22T09:14:26.795Z,1015.26
2019-04-22T09:15:08.551Z,1015.22
2019-04-22T09:16:07.683Z,1015.30
2019-04-22T09:17:11.412Z,1015.25
2019-04-22T09:18:09.908Z,1015.31
2019-04-22T09:19:05.725Z,1015.25
2019-04-22T09:20:06.740Z,1015.25
2019-04-22T09:21:15.415Z,1015.25
2019-04-22T09:22:05.058Z,1015.25
2019-04-22T09:23:07.602Z,1015.26
2019-04-22T09:24:10.521Z,1015.15
2019-04-22T09:25:03.142Z,1015.16
2019-04-22T09:26:09.533Z,1015.15
2019-04-22T09:27:15.887Z,1015.23
2019-04-22T09:28:01.841Z,1015.18
2019-04-22T09:29:05.184Z,1015.14
2019-04-22T09:30:06.088Z,1015.11
2019-04-22T09:31:06.597Z,1015.15
2019-04-22T09:32:14.862Z,1015.12
2019-04-22T09:33:09.866Z,1015.09
2019-04-22T09:34:01.521Z,1015.12
2019-04-22T09:35:03.022Z,1015.10
2019-04-22T09:36:09.421Z,1015.10
2019-04-22T09:37:11.918Z,1015.14
2019-04-22T09:38:19.013Z,1015.14
2019-04-22T09:39:00.650Z,1015.09
2019-04-22T09:41:10.413Z,1015.13
2019-04-22T09:42:05.165Z,1015.12
2019-04-22T09:43:02.529Z,1015.00
2019-04-22T09:44:02.933Z,1015.11
2019-04-22T09:45:06.034Z,1015.08
2019-04-22T09:46:21.597Z,1015.06
2019-04-22T09:47:07.352Z,1015.02
2019-04-22T09:48:08.388Z,1014.95
2019-04-22T09:49:06.793Z,1014.99
2019-04-22T09:51:03.689Z,1014.97
2019-04-22T09:52:08.532Z,1015.02
2019-04-22T09:53:08.689Z,1015.08
2019-04-22T09:54:05.943Z,1015.00
2019-04-22T09:55:10.931Z,1015.09
2019-04-22T09:56:03.817Z,1015.10
2019-04-22T09:57:01.589Z,1015.03
2019-04-22T09:58:02.792Z,1015.04
2019-04-22T09:59:03.945Z,1015.10
2019-04-22T10:01:12.871Z,1015.01
2019-04-22T10:02:19.743Z,1015.01
2019-04-22T10:03:07.129Z,1014.96
2019-04-22T10:04:06.899Z,1015.07
2019-04-22T10:05:06.391Z,1015.04
2019-04-22T10:06:11.876Z,1014.93
2019-04-22T10:06:59.729Z,1015.00
2019-04-22T10:08:14.606Z,1015.01
2019-04-22T10:09:27.417Z,1015.09
2019-04-22T10:10:09.954Z,1015.07
2019-04-22T10:11:04.553Z,1015.05
2019-04-22T10:12:02.175Z,1015.08
2019-04-22T10:13:10.403Z,1015.01
2019-04-22T10:14:05.670Z,1015.02
2019-04-22T10:15:00.181Z,1015.09
2019-04-22T10:16:07.664Z,1015.02
2019-04-22T10:16:59.986Z,1014.98
2019-04-22T10:18:04.813Z,1014.98
2019-04-22T10:19:04.626Z,1014.95
2019-04-22T10:20:01.048Z,1014.94
2019-04-22T10:21:08.416Z,1014.91
2019-04-22T10:22:05.254Z,1014.87
2019-04-22T10:23:05.930Z,1014.89
2019-04-22T10:24:04.752Z,1014.92
2019-04-22T10:25:08.163Z,1014.94
2019-04-22T10:26:04.964Z,1014.89
2019-04-22T10:27:02.060Z,1014.91
2019-04-22T10:28:08.830Z,1014.84
2019-04-22T10:29:05.958Z,1014.83
2019-04-22T10:31:00.389Z,1014.75
2019-04-22T10:32:05.611Z,1014.74
2019-04-22T10:32:59.181Z,1014.79
2019-04-22T10:33:53.281Z,1014.65
2019-04-22T10:34:44.531Z,1014.68
2019-04-22T10:35:39.354Z,1014.70
2019-04-22T10:36:37.936Z,1014.70
2019-04-22T10:37:38.654Z,1014.65
2019-04-22T10:38:37.632Z,1014.66
2019-04-22T10:39:45.910Z,1014.65
2019-04-22T10:40:38.739Z,1014.73
2019-04-22T10:41:38.745Z,1014.66
2019-04-22T10:42:38.597Z,1014.62
2019-04-22T10:43:37.473Z,1014.62
2019-04-22T10:44:37.447Z,1014.53
2019-04-22T10:45:37.723Z,1014.53
2019-04-22T10:46:37.950Z,1014.54
2019-04-22T10:47:38.261Z,1014.48
2019-04-22T10:48:37.341Z,1014.48
2019-04-22T10:49:38.325Z,1014.46
2019-04-22T10:50:38.079Z,1014.53
2019-04-22T10:51:37.293Z,1014.54
2019-04-22T10:52:37.282Z,1014.51
2019-04-22T10:53:37.568Z,1014.43
2019-04-22T10:54:37.676Z,1014.43
2019-04-22T10:55:38.051Z,1014.34
2019-04-22T10:56:37.158Z,1014.33
2019-04-22T10:57:37.098Z,1014.35
2019-04-22T10:58:38.321Z,1014.27
2019-04-22T10:59:38.226Z,1014.25
2019-04-22T11:00:37.657Z,1014.34
2019-04-22T11:01:38.494Z,1014.38
2019-04-22T11:02:37.254Z,1014.35
2019-04-22T11:03:37.326Z,1014.35
2019-04-22T11:04:38.452Z,1014.30
2019-04-22T11:05:37.950Z,1014.23
2019-04-22T11:06:40.914Z,1014.30
2019-04-22T11:07:44.380Z,1014.21
2019-04-22T11:08:45.868Z,1014.30
2019-04-22T11:09:49.358Z,1014.25
2019-04-22T11:10:51.948Z,1014.18
2019-04-22T11:11:46.595Z,1014.19
2019-04-22T11:12:37.999Z,1014.20
2019-04-22T11:13:37.893Z,1014.16
2019-04-22T11:14:37.800Z,1014.13
2019-04-22T11:15:37.102Z,1014.13
2019-04-22T11:16:37.279Z,1014.14
2019-04-22T11:17:37.665Z,1014.12
2019-04-22T11:18:37.833Z,1014.19
2019-04-22T11:19:37.342Z,1014.18
2019-04-22T11:20:37.782Z,1014.11
2019-04-22T11:21:37.742Z,1014.09
2019-04-22T11:22:37.314Z,1014.12
2019-04-22T11:23:36.541Z,1014.12
2019-04-22T11:24:37.024Z,1014.02
2019-04-22T11:25:36.365Z,1014.07
2019-04-22T11:26:36.877Z,1014.03
2019-04-22T11:27:37.094Z,1014.07
2019-04-22T11:28:37.915Z,1014.00
2019-04-22T11:29:37.465Z,1014.01
2019-04-22T11:30:36.676Z,1014.06
2019-04-22T11:31:36.579Z,1014.06
2019-04-22T11:32:36.314Z,1014.06
2019-04-22T11:33:36.452Z,1014.04
2019-04-22T11:34:37.480Z,1014.06
2019-04-22T11:35:37.224Z,1014.02
2019-04-22T11:36:37.052Z,1013.94
2019-04-22T11:37:36.771Z,1014.03
2019-04-22T11:38:38.912Z,1014.01
2019-04-22T11:39:36.689Z,1014.04
2019-04-22T11:40:40.588Z,1014.05
2019-04-22T11:41:36.221Z,1014.00
2019-04-22T11:42:36.374Z,1013.99
2019-04-22T11:43:36.253Z,1014.02
2019-04-22T11:44:37.116Z,1014.01
2019-04-22T11:45:37.089Z,1013.97
2019-04-22T11:46:35.820Z,1013.95
2019-04-22T11:47:37.249Z,1013.96
2019-04-22T11:48:35.968Z,1013.98
2019-04-22T11:49:36.189Z,1013.99
2019-04-22T11:50:35.878Z,1013.98
2019-04-22T11:51:35.987Z,1013.96
2019-04-22T11:52:37.139Z,1013.93
2019-04-22T11:53:36.619Z,1014.00
2019-04-22T11:54:36.799Z,1014.01
2019-04-22T11:55:36.911Z,1013.96
2019-04-22T11:56:36.727Z,1013.91
2019-04-22T11:57:37.024Z,1013.77
2019-04-22T11:58:37.005Z,1013.96
2019-04-22T11:59:36.410Z,1013.90
2019-04-22T12:00:36.780Z,1013.87
2019-04-22T12:01:37.001Z,1013.82
2019-04-22T12:02:36.626Z,1013.84
2019-04-22T12:03:35.777Z,1013.82
2019-04-22T12:04:35.900Z,1013.86
2019-04-22T12:05:35.331Z,1013.89
2019-04-22T12:06:36.020Z,1013.91
2019-04-22T12:07:36.692Z,1013.97
2019-04-22T12:08:35.745Z,1013.91
2019-04-22T12:09:35.377Z,1013.80
2019-04-22T12:10:42.687Z,1013.75
2019-04-22T12:11:36.463Z,1013.77
2019-04-22T12:12:36.301Z,1013.84
2019-04-22T12:13:35.819Z,1013.76
2019-04-22T12:14:36.213Z,1013.74
2019-04-22T12:15:35.293Z,1013.64
2019-04-22T12:16:35.198Z,1013.65
2019-04-22T12:17:36.159Z,1013.66
2019-04-22T12:18:35.404Z,1013.67
2019-04-22T12:19:35.250Z,1013.71
2019-04-22T12:20:35.116Z,1013.64
2019-04-22T12:21:35.239Z,1013.60
2019-04-22T12:22:35.778Z,1013.66
2019-04-22T12:23:35.009Z,1013.73
2019-04-22T12:24:36.277Z,1013.70
2019-04-22T12:25:47.639Z,1013.66
2019-04-22T12:26:34.792Z,1013.57
2019-04-22T12:27:35.035Z,1013.65
2019-04-22T12:28:35.135Z,1013.63
2019-04-22T12:29:35.153Z,1013.62
2019-04-22T12:30:35.256Z,1013.62
2019-04-22T12:31:35.728Z,1013.56
2019-04-22T12:32:35.731Z,1013.70
2019-04-22T12:33:35.056Z,1013.58
2019-04-22T12:34:35.380Z,1013.61
2019-04-22T12:35:34.688Z,1013.48
2019-04-22T12:36:34.537Z,1013.54
2019-04-22T12:37:43.935Z,1013.52
2019-04-22T12:38:35.695Z,1013.42
2019-04-22T12:39:35.702Z,1013.40
2019-04-22T12:40:42.422Z,1013.31
2019-04-22T12:41:35.680Z,1013.36
2019-04-22T12:42:35.371Z,1013.34
2019-04-22T12:43:35.463Z,1013.41
2019-04-22T12:44:37.388Z,1013.37
2019-04-22T12:45:34.303Z,1013.35
2019-04-22T12:46:34.282Z,1013.36
2019-04-22T12:47:35.721Z,1013.32
2019-04-22T12:48:35.097Z,1013.34
2019-04-22T12:49:38.390Z,1013.31
2019-04-22T12:50:38.725Z,1013.32
2019-04-22T12:51:34.149Z,1013.35
2019-04-22T12:52:43.627Z,1013.31
2019-04-22T12:53:34.113Z,1013.42
2019-04-22T12:54:35.145Z,1013.33
2019-04-22T12:55:34.408Z,1013.27
2019-04-22T12:56:35.358Z,1013.34
2019-04-22T12:57:34.736Z,1013.30
2019-04-22T12:58:34.069Z,1013.24
2019-04-22T12:59:35.257Z,1013.34
2019-04-22T13:00:34.335Z,1013.22
2019-04-22T13:01:35.097Z,1013.19
2019-04-22T13:02:34.502Z,1013.17
2019-04-22T13:03:34.143Z,1013.17
2019-04-22T13:04:34.270Z,1013.11
2019-04-22T13:05:35.023Z,1013.19
2019-04-22T13:06:33.798Z,1013.25
2019-04-22T13:07:33.783Z,1013.11
2019-04-22T13:08:33.999Z,1013.11
2019-04-22T13:09:33.720Z,1013.08
2019-04-22T13:10:45.416Z,1013.03
2019-04-22T13:11:36.421Z,1013.05
2019-04-22T13:12:34.708Z,1013.05
2019-04-22T13:13:34.611Z,1013.08
2019-04-22T13:14:34.800Z,1013.16
2019-04-22T13:15:34.983Z,1013.08
2019-04-22T13:16:33.519Z,1013.08
2019-04-22T13:17:33.496Z,1013.05
2019-04-22T13:18:40.318Z,1013.03
2019-04-22T13:19:33.958Z,1013.00
2019-04-22T13:20:34.532Z,1012.95
2019-04-22T13:21:33.394Z,1012.97
2019-04-22T13:22:34.851Z,1012.97
2019-04-22T13:23:34.045Z,1012.94
2019-04-22T13:24:34.171Z,1012.93
2019-04-22T13:25:34.569Z,1012.83
2019-04-22T13:26:33.832Z,1012.92
2019-04-22T13:27:33.254Z,1012.92
2019-04-22T13:28:34.501Z,1012.88
2019-04-22T13:29:33.217Z,1012.89
2019-04-22T13:30:34.546Z,1012.80
2019-04-22T13:31:33.154Z,1012.78
2019-04-22T13:32:34.643Z,1012.74
2019-04-22T13:33:33.095Z,1012.77
2019-04-22T13:34:39.660Z,1012.85
2019-04-22T13:35:33.909Z,1012.86
2019-04-22T13:36:34.433Z,1012.89
2019-04-22T13:37:32.992Z,1012.87
2019-04-22T13:38:33.244Z,1012.76
2019-04-22T13:39:32.942Z,1012.76
2019-04-22T13:40:33.075Z,1012.73
2019-04-22T13:41:40.514Z,1012.73
2019-04-22T13:42:33.383Z,1012.67
2019-04-22T13:43:32.844Z,1012.63
2019-04-22T13:44:33.538Z,1012.62
2019-04-22T13:45:33.954Z,1012.60